createdAt,value
2018-05-07T00:00:35.582Z,100673
2018-05-07T00:05:40.891Z,100685
2018-05-07T00:10:46.499Z,100672
2018-05-07T00:15:52.454Z,100676
2018-05-07T00:21:02.673Z,100666
2018-05-07T00:26:08.620Z,100665
2018-05-07T00:31:14.796Z,100665
2018-05-07T00:36:20.795Z,100663
2018-05-07T00:41:25.047Z,100660
2018-05-07T00:46:31.505Z,100659
2018-05-07T00:51:38.797Z,100652
2018-05-07T00:56:42.622Z,100658
2018-05-07T01:01:50.403Z,100659
2018-05-07T01:06:55.839Z,100665
2018-05-07T01:12:02.408Z,100655
2018-05-07T01:17:06.880Z,100654
2018-05-07T01:22:12.643Z,100668
2018-05-07T01:27:18.004Z,100660
2018-05-07T01:32:23.398Z,100671
2018-05-07T01:37:29.296Z,100665
2018-05-07T01:42:34.307Z,100669
2018-05-07T01:47:40.352Z,100660
2018-05-07T01:52:46.804Z,100661
2018-05-07T01:57:52.570Z,100668
2018-05-07T02:02:58.270Z,100663
2018-05-07T02:08:03.379Z,100659
2018-05-07T02:13:13.580Z,100655
2018-05-07T02:18:19.031Z,100650
2018-05-07T02:23:34.104Z,100648
2018-05-07T02:28:39.241Z,100642
2018-05-07T02:33:43.103Z,100643
2018-05-07T02:38:48.445Z,100638
2018-05-07T02:43:54.262Z,100632
2018-05-07T02:49:02.818Z,100626
2018-05-07T02:54:09.126Z,100620
2018-05-07T02:59:16.491Z,100621
2018-05-07T03:04:24.593Z,100612
2018-05-07T03:09:30.526Z,100620
2018-05-07T03:14:39.461Z,100603
2018-05-07T03:19:56.850Z,100598
2018-05-07T03:25:02.837Z,100594
2018-05-07T03:30:11.957Z,100595
2018-05-07T03:35:17.831Z,100595
2018-05-07T03:40:25.275Z,100593
2018-05-07T03:45:30.082Z,100602
2018-05-07T03:50:35.599Z,100599
2018-05-07T03:55:46.485Z,100592
2018-05-07T04:00:51.306Z,100597
2018-05-07T04:05:57.099Z,100594
2018-05-07T04:11:12.188Z,100590
2018-05-07T04:32:26.415Z,100593
2018-05-07T04:37:32.863Z,100593
2018-05-07T04:42:38.250Z,100591
2018-05-07T04:47:41.665Z,100592
2018-05-07T04:52:47.573Z,100595
2018-05-07T04:57:53.083Z,100588
2018-05-07T05:03:00.435Z,100599
2018-05-07T05:08:05.468Z,100612
2018-05-07T05:13:11.767Z,100610
2018-05-07T05:18:22.186Z,100609
2018-05-07T05:23:27.989Z,100612
2018-05-07T05:28:35.139Z,100622
2018-05-07T05:33:44.954Z,100620
2018-05-07T05:38:51.596Z,100620
2018-05-07T05:43:58.552Z,100625
2018-05-07T05:49:03.512Z,100615
2018-05-07T05:54:11.362Z,100615
2018-05-07T05:59:17.443Z,100622
2018-05-07T06:04:24.531Z,100626
2018-05-07T06:09:31.029Z,100627
2018-05-07T06:14:36.863Z,100622
2018-05-07T06:19:44.644Z,100626
2018-05-07T06:24:50.345Z,100630
2018-05-07T06:29:56.570Z,100626
2018-05-07T06:35:03.106Z,100622
2018-05-07T06:40:10.697Z,100625
2018-05-07T06:45:16.699Z,100631
2018-05-07T06:50:22.959Z,100629
2018-05-07T06:55:28.767Z,100630
2018-05-07T07:00:35.659Z,100630
2018-05-07T07:05:42.789Z,100633
2018-05-07T07:10:51.342Z,100621
2018-05-07T07:15:56.726Z,100623
2018-05-07T07:21:04.824Z,100603
2018-05-07T07:26:12.365Z,100611
2018-05-07T07:31:19.498Z,100608
2018-05-07T07:36:25.577Z,100606
2018-05-07T07:41:31.857Z,100604
2018-05-07T07:46:38.793Z,100618
2018-05-07T07:51:46.736Z,100606
2018-05-07T07:56:52.316Z,100607
2018-05-07T08:01:59.788Z,100603
2018-05-07T08:07:05.115Z,100605
2018-05-07T08:12:11.565Z,100603
2018-05-07T08:17:18.531Z,100602
2018-05-07T08:22:24.524Z,100607
2018-05-07T08:27:29.967Z,100606
2018-05-07T08:32:34.897Z,100606
2018-05-07T08:37:39.768Z,100603
2018-05-07T08:42:41.426Z,100607
2018-05-07T08:47:45.787Z,100594
2018-05-07T08:52:49.696Z,100592
2018-05-07T08:57:53.998Z,100605
2018-05-07T09:02:56.682Z,100605
2018-05-07T09:08:00.598Z,100604
2018-05-07T09:13:03.906Z,100590
2018-05-07T09:18:07.848Z,100582
2018-05-07T09:23:12.752Z,100576
2018-05-07T09:28:16.222Z,100569
2018-05-07T09:33:19.289Z,100569
2018-05-07T09:38:22.590Z,100556
2018-05-07T09:43:25.482Z,100557
2018-05-07T09:48:28.188Z,100555
2018-05-07T09:53:34.650Z,100547
2018-05-07T09:58:56.672Z,100546
2018-05-07T10:04:01.333Z,100545
2018-05-07T10:09:05.040Z,100543
2018-05-07T10:14:09.184Z,100537
2018-05-07T10:19:13.878Z,100534
2018-05-07T10:24:18.877Z,100525
2018-05-07T10:29:21.910Z,100516
2018-05-07T10:34:25.371Z,100513
2018-05-07T10:39:28.852Z,100518
2018-05-07T10:44:32.050Z,100505
2018-05-07T10:49:36.789Z,100500
2018-05-07T10:54:42.136Z,100494
2018-05-07T10:59:45.231Z,100482
2018-05-07T11:04:49.745Z,100476
2018-05-07T11:09:52.399Z,100464
2018-05-07T11:14:56.724Z,100475
2018-05-07T11:19:59.498Z,100463
2018-05-07T11:25:03.469Z,100466
2018-05-07T11:30:06.961Z,100457
2018-05-07T11:35:11.818Z,100461
2018-05-07T11:40:13.656Z,100449
2018-05-07T11:45:16.861Z,100439
2018-05-07T11:50:19.858Z,100431
2018-05-07T11:55:23.288Z,100435
2018-05-07T12:00:25.982Z,100437
2018-05-07T12:05:30.387Z,100417
2018-05-07T12:10:35.111Z,100418
2018-05-07T12:15:41.836Z,100403
2018-05-07T12:20:46.353Z,100408
2018-05-07T12:25:54.331Z,100395
2018-05-07T12:31:01.296Z,100388
2018-05-07T12:36:06.491Z,100387
2018-05-07T12:41:12.941Z,100389
2018-05-07T12:46:19.729Z,100381
2018-05-07T12:51:27.917Z,100367
2018-05-07T12:56:35.598Z,100370
2018-05-07T13:01:41.460Z,100365
2018-05-07T13:06:51.814Z,100355
2018-05-07T13:11:59.307Z,100351
2018-05-07T13:17:04.239Z,100341
2018-05-07T13:22:10.936Z,100325
2018-05-07T13:27:22.809Z,100324
2018-05-07T13:32:33.527Z,100313
2018-05-07T13:37:41.551Z,100296
2018-05-07T13:42:47.746Z,100294
2018-05-07T13:47:54.736Z,100289
2018-05-07T13:53:01.377Z,100284
2018-05-07T13:58:07.698Z,100269
2018-05-07T14:03:13.084Z,100272
2018-05-07T14:08:22.584Z,100276
2018-05-07T14:13:27.160Z,100265
2018-05-07T14:18:32.343Z,100260
2018-05-07T14:23:38.788Z,100245
2018-05-07T14:28:45.187Z,100241
2018-05-07T14:33:55.551Z,100248
2018-05-07T14:39:06.754Z,100234
2018-05-07T14:44:13.126Z,100230
2018-05-07T14:49:19.743Z,100215
2018-05-07T14:54:27.464Z,100208
2018-05-07T14:59:29.118Z,100221
2018-05-07T15:04:35.867Z,100207
2018-05-07T15:09:42.827Z,100197
2018-05-07T15:14:49.182Z,100194
2018-05-07T15:19:56.347Z,100198
2018-05-07T15:30:21.779Z,100183
2018-05-07T15:35:32.848Z,100181
2018-05-07T15:40:42.429Z,100167
2018-05-07T15:45:52.370Z,100163
2018-05-07T15:50:58.497Z,100154
2018-05-07T15:56:05.955Z,100171
2018-05-07T16:01:11.586Z,100155
2018-05-07T16:06:19.159Z,100148
2018-05-07T16:11:26.524Z,100161
2018-05-07T16:16:32.727Z,100152
2018-05-07T16:21:39.604Z,100153
2018-05-07T16:26:47.248Z,100152
2018-05-07T16:31:55.346Z,100137
2018-05-07T16:37:02.221Z,100140
2018-05-07T16:42:08.898Z,100132
2018-05-07T16:47:10.676Z,100130
2018-05-07T16:52:19.418Z,100134
2018-05-07T16:57:28.119Z,100141
2018-05-07T17:02:35.977Z,100137
2018-05-07T17:07:43.316Z,100130
2018-05-07T17:12:49.821Z,100129
2018-05-07T17:17:56.893Z,100128
2018-05-07T17:23:02.492Z,100126
2018-05-07T17:28:08.277Z,100122
2018-05-07T17:33:14.612Z,100131
2018-05-07T17:38:20.807Z,100126
2018-05-07T17:43:26.373Z,100130
2018-05-07T17:48:48.211Z,100125
2018-05-07T17:53:55.653Z,100126
2018-05-07T17:59:02.110Z,100121
2018-05-07T18:04:12.123Z,100124
2018-05-07T18:09:13.928Z,100131
2018-05-07T18:14:20.124Z,100127
2018-05-07T18:19:26.088Z,100127
2018-05-07T18:24:33.197Z,100127
2018-05-07T18:29:45.424Z,100125
2018-05-07T18:34:52.873Z,100125
2018-05-07T18:39:59.833Z,100122
2018-05-07T18:45:10.808Z,100122
2018-05-07T18:50:19.997Z,100119
2018-05-07T18:55:28.895Z,100132
2018-05-07T19:00:39.199Z,100121
2018-05-07T19:05:47.773Z,100133
2018-05-07T19:10:54.620Z,100114
2018-05-07T19:16:04.696Z,100116
2018-05-07T19:21:11.541Z,100114
2018-05-07T19:26:16.596Z,100103
2018-05-07T19:31:23.728Z,100106
2018-05-07T19:36:31.655Z,100112
2018-05-07T19:41:40.263Z,100113
2018-05-07T19:46:44.759Z,100099
2018-05-07T19:51:50.722Z,100108
2018-05-07T19:57:00.878Z,100103
2018-05-07T20:02:08.236Z,100107
2018-05-07T20:07:14.623Z,100104
2018-05-07T20:12:22.681Z,100097
2018-05-07T20:17:28.152Z,100095
2018-05-07T20:22:36.554Z,100094
2018-05-07T20:27:45.923Z,100093
2018-05-07T20:32:47.951Z,100096
2018-05-07T20:37:53.381Z,100091
2018-05-07T20:43:00.663Z,100091
2018-05-07T20:48:07.479Z,100090
2018-05-07T20:53:13.240Z,100090
2018-05-07T20:58:20.444Z,100090
2018-05-07T21:03:25.776Z,100091
2018-05-07T21:08:32.692Z,100094
2018-05-07T21:13:43.484Z,100101
2018-05-07T21:18:48.640Z,100090
2018-05-07T21:23:58.255Z,100102
2018-05-07T21:29:01.637Z,100102
2018-05-07T21:34:06.329Z,100105
2018-05-07T21:39:10.267Z,100104
2018-05-07T21:44:14.143Z,100108
2018-05-07T21:49:18.303Z,100104
2018-05-07T21:54:22.513Z,100100
2018-05-07T21:59:26.536Z,100101
2018-05-07T22:04:30.723Z,100105
2018-05-07T22:09:34.610Z,100095
2018-05-07T22:14:39.303Z,100106
2018-05-07T22:19:42.388Z,100103
2018-05-07T22:24:46.328Z,100105
2018-05-07T22:29:50.327Z,100105
2018-05-07T22:34:54.223Z,100101
2018-05-07T22:39:58.065Z,100102
2018-05-07T22:45:02.527Z,100094
2018-05-07T22:50:07.380Z,100100
2018-05-07T22:55:20.444Z,100093
2018-05-07T23:00:23.951Z,100103
2018-05-07T23:05:27.136Z,100094
2018-05-07T23:10:30.903Z,100086
2018-05-07T23:15:36.442Z,100079
2018-05-07T23:20:43.067Z,100073
2018-05-07T23:25:44.631Z,100075
2018-05-07T23:30:46.205Z,100075
2018-05-07T23:35:47.789Z,100063
2018-05-07T23:40:49.336Z,100055
2018-05-07T23:45:53.815Z,100053
2018-05-07T23:50:58.311Z,100047
2018-05-07T23:56:03.390Z,100039
